Time;durP1;ratioP1;P1;durP2;ratioP2;P2;SDS_P1;SDS_P2;PMS_P1;PMS_P2;Temp;Humidity;BMP_temperature;BMP_pressure;BME280_temperature;BME280_humidity;BME280_pressure;Samples;Min_cycle;Max_cycle;Signal;HPM_P1;HPM_P2
2023/03/30 00:01:19;;;;;;;7.13;5.43;;;10.40;99.90;;;;;;4978659;28;20198;-81
2023/03/30 00:03:46;;;;;;;7.43;5.47;;;10.40;99.90;;;;;;4984738;28;20685;-80
2023/03/30 00:06:20;;;;;;;9.00;5.53;;;10.40;99.90;;;;;;4981454;28;20285;-80
2023/03/30 00:08:47;;;;;;;8.30;5.70;;;10.40;99.90;;;;;;4982235;28;20694;-81
2023/03/30 00:11:15;;;;;;;7.33;5.40;;;10.30;99.90;;;;;;4982057;28;20214;-80
2023/03/30 00:13:42;;;;;;;8.07;5.83;;;10.40;99.90;;;;;;4980271;28;20175;-80
2023/03/30 00:16:10;;;;;;;6.57;5.13;;;10.40;99.90;;;;;;4983038;28;20295;-79
2023/03/30 00:18:36;;;;;;;7.63;4.73;;;10.40;99.90;;;;;;4981468;28;20221;-80
2023/03/30 00:21:02;;;;;;;6.57;4.57;;;10.40;99.90;;;;;;4978417;28;20213;-80
2023/03/30 00:23:29;;;;;;;6.83;5.40;;;10.40;99.90;;;;;;4981319;28;20815;-78
2023/03/30 00:25:55;;;;;;;8.83;5.40;;;10.40;99.90;;;;;;4976006;28;20206;-80
2023/03/30 00:28:21;;;;;;;5.70;4.50;;;10.30;99.90;;;;;;4976270;28;20854;-80
2023/03/30 00:30:47;;;;;;;7.23;5.47;;;10.30;99.90;;;;;;4977041;28;20712;-80
2023/03/30 00:33:13;;;;;;;12.37;6.00;;;10.30;99.90;;;;;;4974612;28;20242;-81
2023/03/30 00:35:39;;;;;;;6.17;4.90;;;10.30;99.90;;;;;;4973472;28;20202;-77
2023/03/30 00:38:05;;;;;;;5.13;4.63;;;10.30;99.90;;;;;;4982007;28;20266;-79
2023/03/30 00:40:33;;;;;;;7.13;4.93;;;10.30;99.90;;;;;;4989352;28;20194;-80
2023/03/30 00:43:00;;;;;;;7.50;5.17;;;10.30;99.90;;;;;;4987494;28;20262;-81
2023/03/30 00:45:26;;;;;;;6.77;5.17;;;10.30;99.90;;;;;;4980372;28;20621;-82
2023/03/30 00:48:05;;;;;;;6.27;5.00;;;10.30;99.90;;;;;;4977721;28;20218;-80
2023/03/30 00:50:42;;;;;;;7.47;4.97;;;10.20;99.90;;;;;;4993662;28;20202;-79
2023/03/30 00:53:20;;;;;;;6.53;4.90;;;10.30;99.90;;;;;;4978825;28;20202;-80
2023/03/30 00:55:48;;;;;;;7.70;5.03;;;10.20;99.90;;;;;;4981823;28;20210;-81
2023/03/30 00:58:16;;;;;;;6.67;4.83;;;10.20;99.90;;;;;;4982130;28;20663;-81
2023/03/30 01:00:46;;;;;;;5.93;5.23;;;10.20;99.90;;;;;;4979446;28;20206;-81
2023/03/30 01:03:31;;;;;;;7.90;5.33;;;10.20;99.90;;;;;;4979047;28;20193;-82
2023/03/30 01:05:59;;;;;;;7.53;5.27;;;10.20;99.90;;;;;;4977523;28;20206;-79
2023/03/30 01:08:31;;;;;;;7.80;5.30;;;10.20;99.90;;;;;;4978062;28;20203;-80
2023/03/30 01:11:00;;;;;;;7.17;5.03;;;10.10;99.90;;;;;;4979770;28;20226;-80
2023/03/30 01:13:33;;;;;;;9.03;5.93;;;10.10;99.90;;;;;;4978230;28;20163;-80
2023/03/30 01:16:26;;;;;;;8.87;5.90;;;10.10;99.90;;;;;;4977655;28;20249;-80
2023/03/30 01:19:17;;;;;;;8.03;5.80;;;10.10;99.90;;;;;;4975105;28;20656;-81
2023/03/30 01:21:58;;;;;;;10.03;6.03;;;10.10;99.90;;;;;;4988355;28;20210;-79
2023/03/30 01:24:53;;;;;;;10.27;5.43;;;10.00;99.90;;;;;;4984918;28;20201;-81
2023/03/30 01:27:57;;;;;;;7.40;5.30;;;10.00;99.90;;;;;;4987238;28;20214;-81
2023/03/30 01:30:38;;;;;;;7.93;5.53;;;9.90;99.90;;;;;;4978803;28;20217;-81
2023/03/30 01:33:18;;;;;;;8.87;6.10;;;9.90;99.90;;;;;;4983554;28;20201;-80
2023/03/30 01:35:56;;;;;;;7.17;5.80;;;9.90;99.90;;;;;;4978347;28;20202;-79
2023/03/30 01:38:43;;;;;;;8.30;6.50;;;9.90;99.90;;;;;;4977700;28;20826;-80
2023/03/30 01:41:28;;;;;;;10.00;6.23;;;9.80;99.90;;;;;;4978318;28;20217;-80
2023/03/30 01:44:24;;;;;;;8.97;6.43;;;9.90;99.90;;;;;;4973733;28;20209;-81
2023/03/30 01:47:08;;;;;;;9.30;6.30;;;9.80;99.90;;;;;;4977871;28;20361;-81
2023/03/30 01:49:58;;;;;;;7.73;6.67;;;9.90;99.90;;;;;;4975803;28;20179;-81
2023/03/30 01:52:30;;;;;;;8.43;6.80;;;9.90;99.90;;;;;;4975912;28;20167;-80
2023/03/30 01:55:15;;;;;;;9.67;6.37;;;9.90;99.90;;;;;;4984161;28;20166;-81
2023/03/30 01:58:13;;;;;;;8.70;6.97;;;9.90;99.90;;;;;;4977668;28;20685;-80
2023/03/30 02:00:42;;;;;;;7.17;6.00;;;9.90;99.90;;;;;;4992551;28;20286;-80
2023/03/30 02:03:08;;;;;;;9.93;6.73;;;9.90;99.90;;;;;;4984629;28;20280;-81
2023/03/30 02:05:35;;;;;;;9.33;6.43;;;9.90;99.90;;;;;;4983424;28;20241;-80
2023/03/30 02:08:12;;;;;;;10.43;7.40;;;9.90;99.90;;;;;;4986938;28;20568;-81
2023/03/30 02:10:40;;;;;;;11.13;6.50;;;9.90;99.90;;;;;;4974708;28;20174;-80
2023/03/30 02:13:07;;;;;;;9.63;6.83;;;9.80;99.90;;;;;;4984154;28;20197;-81
2023/03/30 02:15:45;;;;;;;10.10;6.87;;;9.80;99.90;;;;;;4981206;28;20230;-81
2023/03/30 02:18:11;;;;;;;7.97;6.50;;;9.80;99.90;;;;;;4979856;28;20205;-81
2023/03/30 02:20:37;;;;;;;9.60;7.20;;;9.80;99.90;;;;;;4979180;28;20214;-80
2023/03/30 02:23:05;;;;;;;10.60;6.70;;;9.80;99.90;;;;;;4989109;28;20278;-80
2023/03/30 02:25:33;;;;;;;7.93;6.80;;;9.80;99.90;;;;;;4979668;28;20178;-81
2023/03/30 02:27:58;;;;;;;8.13;6.73;;;9.80;99.90;;;;;;4989023;28;20367;-81
2023/03/30 02:30:24;;;;;;;9.20;6.77;;;9.70;99.90;;;;;;4980632;28;20572;-80
2023/03/30 02:32:55;;;;;;;10.10;6.13;;;9.70;99.90;;;;;;4989614;28;20198;-81
2023/03/30 02:35:53;;;;;;;11.13;7.20;;;9.70;99.90;;;;;;4980298;28;20229;-81
2023/03/30 02:38:19;;;;;;;9.40;6.90;;;9.80;99.90;;;;;;4986433;28;20300;-80
2023/03/30 02:41:02;;;;;;;8.50;6.63;;;9.70;99.90;;;;;;4982691;28;20739;-80
2023/03/30 02:43:31;;;;;;;9.43;7.07;;;9.70;99.90;;;;;;4975990;28;20233;-80
2023/03/30 02:46:05;;;;;;;8.43;6.60;;;9.70;99.90;;;;;;4995461;28;20217;-80
2023/03/30 02:49:08;;;;;;;8.17;6.30;;;9.70;99.90;;;;;;4973293;28;20297;-80
2023/03/30 02:51:51;;;;;;;9.77;6.93;;;9.70;99.90;;;;;;4956630;28;20277;-80
2023/03/30 02:54:32;;;;;;;8.53;6.13;;;9.70;99.90;;;;;;4956261;28;20212;-80
2023/03/30 02:57:03;;;;;;;9.47;6.17;;;9.70;99.90;;;;;;4958333;28;20287;-81
2023/03/30 02:59:56;;;;;;;10.07;7.00;;;9.70;99.90;;;;;;4952063;28;20237;-81
2023/03/30 03:02:29;;;;;;;9.03;6.47;;;9.70;99.90;;;;;;4961468;28;20568;-81
2023/03/30 03:04:55;;;;;;;8.47;6.33;;;9.70;99.90;;;;;;4954375;28;20207;-79
2023/03/30 03:07:23;;;;;;;8.97;6.47;;;9.70;99.90;;;;;;4960105;28;20195;-80
2023/03/30 03:09:49;;;;;;;8.50;6.20;;;9.70;99.90;;;;;;4956165;28;20228;-78
2023/03/30 03:12:14;;;;;;;10.83;6.63;;;9.80;99.90;;;;;;4957598;28;20230;-80
2023/03/30 03:14:41;;;;;;;8.37;5.77;;;9.80;99.90;;;;;;4958744;28;20207;-80
2023/03/30 03:17:08;;;;;;;8.87;6.37;;;9.80;99.90;;;;;;4956099;28;20210;-80
2023/03/30 03:19:34;;;;;;;8.43;5.87;;;9.80;99.90;;;;;;4957459;28;20653;-80
2023/03/30 03:21:59;;;;;;;8.33;5.70;;;9.80;99.90;;;;;;4960100;28;20175;-78
2023/03/30 03:24:26;;;;;;;7.20;6.13;;;9.80;99.90;;;;;;4958918;28;20203;-79
2023/03/30 03:26:51;;;;;;;11.47;6.40;;;9.80;99.90;;;;;;4958059;28;20211;-80
2023/03/30 03:29:17;;;;;;;8.57;6.23;;;9.80;99.90;;;;;;4960944;28;20213;-80
2023/03/30 03:31:43;;;;;;;8.87;6.20;;;9.80;99.90;;;;;;4956808;28;20357;-80
2023/03/30 03:34:08;;;;;;;7.60;6.23;;;9.80;99.90;;;;;;4957856;28;20186;-79
2023/03/30 03:36:34;;;;;;;7.67;6.47;;;9.80;99.90;;;;;;4958658;28;20211;-81
2023/03/30 03:38:59;;;;;;;8.13;5.90;;;9.80;99.90;;;;;;4956630;28;20273;-80
2023/03/30 03:41:25;;;;;;;9.67;5.93;;;9.80;99.90;;;;;;4956703;28;20223;-80
2023/03/30 03:43:51;;;;;;;9.60;6.93;;;9.80;99.90;;;;;;4957300;28;20246;-79
2023/03/30 03:46:16;;;;;;;7.07;6.20;;;9.80;99.90;;;;;;4957541;28;20210;-80
2023/03/30 03:48:42;;;;;;;7.77;6.20;;;9.80;99.90;;;;;;4957556;28;20760;-80
2023/03/30 03:51:08;;;;;;;8.77;6.20;;;9.80;99.90;;;;;;4956697;28;20222;-80
2023/03/30 03:53:34;;;;;;;7.70;5.83;;;9.80;99.90;;;;;;4957573;28;20215;-81
2023/03/30 03:56:00;;;;;;;7.73;5.80;;;9.80;99.90;;;;;;4960687;28;20275;-79
2023/03/30 03:58:26;;;;;;;8.17;6.10;;;9.80;99.90;;;;;;4959927;28;20171;-80
2023/03/30 04:01:00;;;;;;;8.07;6.40;;;9.70;99.90;;;;;;4964492;28;20206;-80
2023/03/30 04:03:26;;;;;;;13.43;7.10;;;9.70;99.90;;;;;;4957059;28;20568;-82
2023/03/30 04:05:51;;;;;;;8.87;5.93;;;9.70;99.90;;;;;;4957838;28;20205;-79
2023/03/30 04:08:17;;;;;;;8.13;6.20;;;9.70;99.90;;;;;;4959406;28;20294;-79
2023/03/30 04:10:43;;;;;;;9.40;6.60;;;9.70;99.90;;;;;;4968339;28;20275;-81
2023/03/30 04:13:09;;;;;;;9.17;6.33;;;9.70;99.90;;;;;;4965632;28;20210;-80
2023/03/30 04:15:35;;;;;;;9.60;6.70;;;9.70;99.90;;;;;;4961508;28;20234;-80
2023/03/30 04:18:00;;;;;;;9.07;7.10;;;9.70;99.90;;;;;;4960991;28;20298;-80
2023/03/30 04:20:27;;;;;;;10.20;7.07;;;9.70;99.90;;;;;;4963106;28;20278;-79
2023/03/30 04:22:54;;;;;;;9.63;7.30;;;9.70;99.90;;;;;;4967923;28;20211;-78
2023/03/30 04:25:21;;;;;;;10.20;6.57;;;9.70;99.90;;;;;;4967998;28;20265;-80
2023/03/30 04:27:50;;;;;;;12.50;7.33;;;9.70;99.90;;;;;;4969049;28;20271;-80
2023/03/30 04:30:17;;;;;;;10.90;6.83;;;9.80;99.90;;;;;;4964265;28;20199;-82
2023/03/30 04:32:43;;;;;;;8.27;6.43;;;9.80;99.90;;;;;;4958144;28;20270;-81
2023/03/30 04:35:10;;;;;;;11.73;7.53;;;9.70;99.90;;;;;;4956672;28;20246;-80
2023/03/30 04:37:37;;;;;;;10.50;6.30;;;9.80;99.90;;;;;;4960795;28;20203;-80
2023/03/30 04:40:06;;;;;;;8.87;6.73;;;9.80;99.90;;;;;;4957030;28;20263;-82
2023/03/30 04:42:36;;;;;;;10.17;6.93;;;9.70;99.90;;;;;;4957141;28;20266;-81
2023/03/30 04:45:09;;;;;;;11.53;7.10;;;9.70;99.90;;;;;;4955644;28;20222;-81
2023/03/30 04:47:35;;;;;;;9.57;6.73;;;9.70;99.90;;;;;;4965157;28;20246;-79
2023/03/30 04:50:01;;;;;;;10.43;7.10;;;9.70;99.90;;;;;;4967186;28;20231;-81
2023/03/30 04:52:27;;;;;;;11.00;6.90;;;9.70;99.90;;;;;;4968289;28;20212;-81
2023/03/30 04:54:53;;;;;;;10.93;7.03;;;9.70;99.90;;;;;;4963575;28;20171;-80
2023/03/30 04:57:19;;;;;;;8.80;6.63;;;9.60;99.90;;;;;;4961684;28;20218;-79
2023/03/30 04:59:45;;;;;;;9.30;6.73;;;9.70;99.90;;;;;;4961243;28;20481;-81
2023/03/30 05:02:12;;;;;;;12.80;6.83;;;9.70;99.90;;;;;;4959331;28;20217;-81
2023/03/30 05:04:38;;;;;;;11.63;7.13;;;9.70;99.90;;;;;;4959850;28;20198;-80
2023/03/30 05:07:05;;;;;;;9.07;6.47;;;9.70;99.90;;;;;;4958759;28;20206;-80
2023/03/30 05:09:31;;;;;;;11.67;7.83;;;9.70;99.90;;;;;;4963113;28;20218;-80
2023/03/30 05:11:57;;;;;;;9.13;6.63;;;9.70;99.90;;;;;;4968571;28;20213;-80
2023/03/30 05:14:23;;;;;;;10.03;6.77;;;9.70;99.90;;;;;;4968377;28;20206;-79
2023/03/30 05:16:48;;;;;;;12.13;6.70;;;9.80;99.90;;;;;;4965315;28;20632;-80
2023/03/30 05:19:14;;;;;;;9.53;7.00;;;9.80;99.90;;;;;;4968275;28;20558;-80
2023/03/30 05:21:40;;;;;;;10.73;7.20;;;9.80;99.90;;;;;;4964421;28;20210;-79
2023/03/30 05:24:06;;;;;;;10.93;6.57;;;9.70;99.90;;;;;;4964746;28;20290;-79
2023/03/30 05:26:32;;;;;;;8.43;6.70;;;9.80;99.90;;;;;;4963027;28;20229;-78
2023/03/30 05:28:58;;;;;;;10.63;6.80;;;9.80;99.90;;;;;;4970748;28;20682;-78
2023/03/30 05:31:24;;;;;;;10.10;6.83;;;9.80;99.90;;;;;;4956676;28;20178;-78
2023/03/30 05:33:51;;;;;;;9.80;6.93;;;9.80;99.90;;;;;;4957920;28;20581;-78
2023/03/30 05:36:17;;;;;;;9.93;6.43;;;9.80;99.90;;;;;;4958990;28;20296;-77
2023/03/30 05:38:42;;;;;;;8.63;6.70;;;9.90;99.90;;;;;;4955715;28;20225;-76
2023/03/30 05:41:08;;;;;;;10.73;7.20;;;9.90;99.90;;;;;;4954519;28;20685;-77
2023/03/30 05:43:34;;;;;;;8.77;6.20;;;9.90;99.90;;;;;;4953281;28;20195;-77
2023/03/30 05:46:01;;;;;;;9.63;7.07;;;9.90;99.90;;;;;;4952964;28;20242;-78
2023/03/30 05:48:27;;;;;;;11.13;6.57;;;9.90;99.90;;;;;;4955089;28;20686;-77
2023/03/30 05:50:53;;;;;;;7.90;6.07;;;9.80;99.90;;;;;;4959374;28;20218;-77
2023/03/30 05:53:18;;;;;;;9.93;7.00;;;9.80;99.90;;;;;;4962110;28;20209;-77
2023/03/30 05:55:45;;;;;;;9.27;6.67;;;9.90;99.90;;;;;;4961745;28;20301;-78
2023/03/30 05:58:11;;;;;;;9.07;6.70;;;9.80;99.90;;;;;;4960207;28;20178;-77
2023/03/30 06:00:40;;;;;;;11.60;6.70;;;9.90;99.90;;;;;;4958306;28;20237;-76
2023/03/30 06:03:07;;;;;;;8.40;6.00;;;9.90;99.90;;;;;;4955724;28;20198;-76
2023/03/30 06:05:44;;;;;;;10.63;6.53;;;9.90;99.90;;;;;;4957218;28;20203;-76
2023/03/30 06:08:10;;;;;;;9.33;6.27;;;9.90;99.90;;;;;;4955889;28;20261;-76
2023/03/30 06:10:37;;;;;;;8.90;5.77;;;9.90;99.90;;;;;;4955449;28;20297;-77
2023/03/30 06:13:03;;;;;;;8.40;5.93;;;10.00;99.90;;;;;;4953898;28;20175;-75
2023/03/30 06:15:32;;;;;;;9.10;6.00;;;10.00;99.90;;;;;;4953887;28;20211;-77
2023/03/30 06:17:58;;;;;;;8.27;6.43;;;10.10;99.90;;;;;;4953723;28;20215;-78
2023/03/30 06:20:25;;;;;;;8.33;5.67;;;10.20;99.90;;;;;;4952369;28;20293;-76
2023/03/30 06:22:51;;;;;;;8.03;6.13;;;10.20;99.90;;;;;;4952875;28;20299;-77
2023/03/30 06:25:19;;;;;;;10.03;6.67;;;10.40;99.90;;;;;;4952632;28;20182;-77
2023/03/30 06:27:45;;;;;;;9.73;6.63;;;10.40;99.90;;;;;;4955388;28;20207;-77
2023/03/30 06:30:12;;;;;;;7.77;5.80;;;10.60;99.90;;;;;;4959097;28;20226;-77
2023/03/30 06:32:37;;;;;;;7.37;5.60;;;10.70;99.90;;;;;;4963515;28;20210;-77
2023/03/30 06:35:04;;;;;;;10.73;6.27;;;10.80;99.90;;;;;;4954801;28;20207;-77
2023/03/30 06:37:37;;;;;;;9.13;5.67;;;10.90;99.90;;;;;;4958522;28;20722;-78
2023/03/30 06:40:07;;;;;;;7.53;6.27;;;10.90;99.90;;;;;;4959925;28;20203;-77
2023/03/30 06:42:33;;;;;;;7.97;5.70;;;10.90;99.90;;;;;;4961642;28;20545;-78
2023/03/30 06:45:02;;;;;;;9.53;5.50;;;11.10;99.90;;;;;;4959177;28;20302;-79
2023/03/30 06:47:30;;;;;;;6.23;5.07;;;11.10;99.90;;;;;;4957527;28;20209;-77
2023/03/30 06:49:56;;;;;;;10.10;5.10;;;11.00;99.90;;;;;;4958221;28;20207;-77
2023/03/30 06:52:24;;;;;;;8.13;5.83;;;10.90;99.90;;;;;;4958861;28;20225;-78
2023/03/30 06:54:50;;;;;;;9.67;5.60;;;10.90;99.90;;;;;;4957302;28;20175;-78
2023/03/30 06:57:16;;;;;;;12.07;5.97;;;11.00;99.90;;;;;;4957213;28;20574;-77
2023/03/30 06:59:41;;;;;;;8.70;5.87;;;11.00;99.90;;;;;;4955893;28;20242;-77
2023/03/30 07:02:12;;;;;;;8.67;5.30;;;11.20;99.90;;;;;;4956194;28;20203;-78
2023/03/30 07:04:38;;;;;;;9.37;5.60;;;11.30;99.90;;;;;;4953503;28;20702;-77
2023/03/30 07:07:04;;;;;;;10.87;5.33;;;11.60;99.90;;;;;;4963210;28;20277;-77
2023/03/30 07:09:30;;;;;;;8.00;5.07;;;12.00;99.90;;;;;;4961585;28;20551;-79
2023/03/30 07:11:55;;;;;;;5.88;4.45;;;12.50;99.90;;;;;;4961163;28;20206;-78
2023/03/30 07:14:21;;;;;;;6.25;4.95;;;13.10;99.90;;;;;;4962332;28;20281;-77
2023/03/30 07:16:47;;;;;;;7.80;5.03;;;14.00;99.90;;;;;;4958983;28;20211;-78
2023/03/30 07:19:14;;;;;;;7.65;4.72;;;15.70;99.90;;;;;;4957496;28;20225;-78
2023/03/30 07:21:40;;;;;;;7.03;4.30;;;16.70;99.90;;;;;;4959907;28;20219;-77
2023/03/30 07:24:07;;;;;;;6.03;4.50;;;16.90;99.90;;;;;;4958873;28;20203;-77
2023/03/30 07:26:33;;;;;;;8.82;4.22;;;17.30;99.90;;;;;;4958899;28;20236;-77
2023/03/30 07:29:01;;;;;;;9.25;4.40;;;17.70;99.90;;;;;;4957414;28;20758;-77
2023/03/30 07:31:27;;;;;;;4.80;3.88;;;17.00;99.90;;;;;;4957346;28;20178;-77
2023/03/30 07:33:52;;;;;;;6.05;4.70;;;17.20;99.90;;;;;;4955343;28;20177;-76
2023/03/30 07:36:18;;;;;;;6.65;4.30;;;17.60;99.90;;;;;;4965101;28;20214;-77
2023/03/30 07:38:45;;;;;;;4.88;3.85;;;17.30;99.90;;;;;;4955480;28;20206;-76
2023/03/30 07:41:14;;;;;;;4.75;4.18;;;17.60;99.90;;;;;;4954907;28;20211;-76
2023/03/30 07:43:40;;;;;;;8.48;4.47;;;18.10;99.90;;;;;;4954346;28;20175;-78
2023/03/30 07:46:10;;;;;;;7.78;5.35;;;17.80;99.90;;;;;;4961975;28;20297;-79
2023/03/30 07:48:37;;;;;;;16.70;10.57;;;17.50;99.90;;;;;;4963777;28;20206;-77
2023/03/30 07:51:05;;;;;;;7.97;4.50;;;18.50;99.90;;;;;;4960140;28;20205;-78
2023/03/30 07:53:32;;;;;;;23.23;14.95;;;18.70;99.90;;;;;;4951806;28;20610;-79
2023/03/30 07:55:58;;;;;;;10.48;5.13;;;19.80;99.90;;;;;;4962593;28;20289;-77
2023/03/30 07:58:25;;;;;;;6.65;4.47;;;20.50;99.90;;;;;;4964575;28;20294;-77
2023/03/30 08:00:52;;;;;;;5.32;3.58;;;19.80;99.90;;;;;;4962150;28;20290;-78
2023/03/30 08:03:18;;;;;;;7.03;4.13;;;18.20;99.90;;;;;;4956823;28;20210;-76
2023/03/30 08:05:52;;;;;;;6.55;3.83;;;17.90;99.90;;;;;;4957126;28;20203;-76
2023/03/30 08:08:18;;;;;;;11.05;4.60;;;17.60;99.90;;;;;;4959510;28;20297;-77
2023/03/30 08:10:45;;;;;;;5.35;4.30;;;17.60;99.90;;;;;;4961010;28;20233;-76
2023/03/30 08:13:11;;;;;;;8.23;4.10;;;17.50;99.90;;;;;;4960339;28;20175;-76
2023/03/30 08:15:38;;;;;;;6.65;3.67;;;17.60;99.90;;;;;;4955244;28;20196;-77
2023/03/30 08:18:06;;;;;;;5.95;3.63;;;17.70;99.90;;;;;;4959663;28;20202;-79
2023/03/30 08:20:36;;;;;;;5.40;3.03;;;17.50;99.90;;;;;;4956801;28;20206;-77
2023/03/30 08:23:06;;;;;;;10.77;3.72;;;17.60;99.90;;;;;;4955778;28;20211;-78
2023/03/30 08:25:32;;;;;;;8.30;3.25;;;17.70;99.90;;;;;;4967847;28;20181;-81
2023/03/30 08:28:01;;;;;;;7.72;3.55;;;17.70;99.90;;;;;;4965778;28;20191;-80
2023/03/30 08:30:27;;;;;;;6.13;3.65;;;17.70;99.90;;;;;;4971444;28;20707;-81
2023/03/30 08:32:53;;;;;;;7.38;3.20;;;17.70;99.90;;;;;;4972456;28;20219;-81
2023/03/30 08:35:22;;;;;;;6.07;3.50;;;18.10;99.90;;;;;;4970644;28;20211;-79
2023/03/30 08:37:48;;;;;;;6.95;3.28;;;18.20;99.90;;;;;;4968298;28;20219;-81
2023/03/30 08:40:14;;;;;;;4.93;3.15;;;18.40;99.90;;;;;;4968817;28;20230;-81
2023/03/30 08:43:06;;;;;;;4.40;2.42;;;18.40;99.90;;;;;;4968014;28;20525;-81
2023/03/30 08:45:40;;;;;;;5.45;3.70;;;18.60;99.90;;;;;;4964329;28;20629;-79
2023/03/30 08:48:28;;;;;;;6.00;3.08;;;18.50;99.90;;;;;;4964573;28;20210;-81
2023/03/30 08:50:59;;;;;;;3.97;2.38;;;18.70;99.90;;;;;;4972278;28;20325;-80
2023/03/30 08:53:27;;;;;;;5.10;2.70;;;18.40;99.90;;;;;;4956991;28;20235;-80
2023/03/30 08:56:03;;;;;;;6.95;2.63;;;18.30;99.90;;;;;;4963063;28;20199;-81
2023/03/30 08:58:38;;;;;;;5.85;2.85;;;18.10;99.90;;;;;;4961179;28;20181;-80
2023/03/30 09:01:19;;;;;;;7.22;2.72;;;17.90;99.90;;;;;;4957731;28;20225;-82
2023/03/30 09:04:16;;;;;;;4.70;2.63;;;17.90;99.90;;;;;;4957162;28;20231;-79
2023/03/30 09:06:55;;;;;;;7.03;2.60;;;18.00;99.90;;;;;;4959150;28;20199;-82
2023/03/30 09:09:25;;;;;;;6.70;2.88;;;18.30;99.90;;;;;;4978607;28;20298;-79
2023/03/30 09:12:13;;;;;;;5.60;2.40;;;18.40;99.90;;;;;;4985522;28;20759;-80
2023/03/30 09:14:52;;;;;;;6.70;2.42;;;18.50;99.90;;;;;;4981974;28;20205;-79
2023/03/30 09:17:23;;;;;;;5.45;2.40;;;18.60;99.90;;;;;;4984170;28;20241;-81
2023/03/30 09:19:49;;;;;;;6.85;2.25;;;18.50;99.90;;;;;;4983113;28;20229;-81
2023/03/30 09:22:18;;;;;;;7.88;2.55;;;18.20;99.90;;;;;;4983069;28;20653;-80
2023/03/30 09:24:44;;;;;;;3.40;2.35;;;18.00;99.90;;;;;;4982913;28;20210;-81
2023/03/30 09:27:39;;;;;;;10.85;2.58;;;17.90;99.90;;;;;;4982273;28;20210;-79
2023/03/30 09:30:17;;;;;;;5.63;2.20;;;17.90;99.90;;;;;;4982074;28;20205;-81
2023/03/30 09:32:55;;;;;;;5.97;2.28;;;17.70;99.90;;;;;;4978683;28;20194;-79
2023/03/30 09:35:27;;;;;;;9.50;2.58;;;17.40;99.90;;;;;;4977786;28;20210;-80
2023/03/30 09:37:53;;;;;;;8.32;2.42;;;17.40;99.90;;;;;;4980864;28;20214;-80
2023/03/30 09:40:37;;;;;;;7.30;2.40;;;17.40;99.90;;;;;;4984731;28;20206;-81
2023/03/30 09:43:15;;;;;;;6.35;2.13;;;17.30;99.90;;;;;;4989199;28;20206;-81
2023/03/30 09:45:43;;;;;;;4.53;2.30;;;17.30;99.90;;;;;;4984365;28;20289;-78
2023/03/30 09:48:09;;;;;;;6.47;2.30;;;17.20;99.90;;;;;;4984402;28;20213;-80
2023/03/30 09:50:41;;;;;;;7.40;2.55;;;17.10;99.90;;;;;;4987091;28;20201;-78
2023/03/30 09:53:30;;;;;;;3.17;1.80;;;17.10;99.90;;;;;;4982521;28;20206;-80
2023/03/30 09:56:10;;;;;;;7.10;2.50;;;17.00;99.90;;;;;;4975205;28;20214;-79
2023/03/30 09:58:36;;;;;;;6.13;2.15;;;17.00;99.90;;;;;;4980413;28;20177;-81
2023/03/30 10:01:07;;;;;;;6.80;2.90;;;17.00;99.90;;;;;;4983854;28;20214;-80
2023/03/30 10:03:34;;;;;;;7.88;2.47;;;17.00;99.90;;;;;;4983412;28;20567;-80
2023/03/30 10:06:11;;;;;;;5.07;2.47;;;17.00;99.90;;;;;;4980280;28;20202;-80
2023/03/30 10:08:54;;;;;;;9.48;2.58;;;17.00;99.90;;;;;;4981884;28;20206;-80
2023/03/30 10:11:35;;;;;;;7.85;2.95;;;17.00;99.90;;;;;;4983316;28;20229;-83
2023/03/30 10:14:07;;;;;;;12.38;3.10;;;17.00;99.90;;;;;;4984726;28;20212;-79
2023/03/30 10:16:33;;;;;;;7.78;4.05;;;17.00;99.90;;;;;;4985322;28;20760;-80
2023/03/30 10:19:06;;;;;;;5.20;2.90;;;16.90;99.90;;;;;;4991817;28;20169;-81
2023/03/30 10:21:40;;;;;;;6.32;2.40;;;16.80;99.90;;;;;;4989741;28;20218;-80
2023/03/30 10:24:17;;;;;;;7.65;2.20;;;16.80;99.90;;;;;;4980972;28;20578;-78
2023/03/30 10:26:48;;;;;;;9.15;2.60;;;16.70;99.90;;;;;;4981788;28;20213;-80
2023/03/30 10:29:18;;;;;;;5.22;2.63;;;16.60;99.90;;;;;;4983701;28;20210;-78
2023/03/30 10:31:48;;;;;;;5.45;2.60;;;16.70;99.90;;;;;;4985751;28;20210;-79
2023/03/30 10:34:17;;;;;;;6.78;3.08;;;16.70;99.90;;;;;;4982556;28;20229;-77
2023/03/30 10:36:46;;;;;;;6.13;3.15;;;16.80;99.90;;;;;;4981016;28;20209;-80
2023/03/30 10:39:19;;;;;;;5.05;2.60;;;16.70;99.90;;;;;;4982828;28;20743;-79
2023/03/30 10:41:47;;;;;;;4.18;2.22;;;16.80;99.90;;;;;;4985625;28;20369;-79
2023/03/30 10:44:29;;;;;;;6.20;2.85;;;16.90;99.90;;;;;;4984479;28;20221;-80
2023/03/30 10:47:26;;;;;;;9.65;2.63;;;17.00;99.90;;;;;;4972903;28;20248;-78
2023/03/30 10:50:17;;;;;;;8.75;2.80;;;17.20;99.90;;;;;;4972840;28;20684;-76
2023/03/30 10:53:25;;;;;;;8.18;3.35;;;17.40;99.90;;;;;;4970956;28;20206;-77
2023/03/30 10:56:17;;;;;;;9.80;2.38;;;17.50;99.90;;;;;;4974670;28;20237;-77
2023/03/30 10:58:57;;;;;;;14.38;3.58;;;17.80;99.90;;;;;;4980926;28;20218;-77
2023/03/30 11:01:42;;;;;;;8.07;3.30;;;18.00;99.90;;;;;;4981505;28;20237;-77
2023/03/30 11:04:21;;;;;;;8.52;2.53;;;18.10;99.90;;;;;;5001637;23;20264;-76
2023/03/30 11:06:51;;;;;;;5.35;2.00;;;18.10;99.90;;;;;;5005450;28;20283;-76
2023/03/30 11:09:23;;;;;;;3.33;2.20;;;17.90;99.90;;;;;;4999996;28;20197;-75
2023/03/30 11:11:57;;;;;;;8.25;3.58;;;17.70;99.90;;;;;;4998226;28;20197;-74
2023/03/30 11:14:45;;;;;;;6.63;2.90;;;17.70;99.90;;;;;;4997613;28;20213;-76
2023/03/30 11:17:21;;;;;;;10.15;3.10;;;17.80;99.90;;;;;;4994826;28;20216;-75
2023/03/30 11:19:50;;;;;;;11.75;3.13;;;17.70;99.90;;;;;;4994785;28;20219;-75
2023/03/30 11:22:22;;;;;;;6.10;2.53;;;17.70;99.90;;;;;;4996201;28;20185;-76
2023/03/30 11:24:52;;;;;;;5.68;2.47;;;17.50;99.90;;;;;;4972998;28;20221;-75
2023/03/30 11:27:29;;;;;;;6.35;2.60;;;17.50;99.90;;;;;;4972197;28;20206;-75
2023/03/30 11:30:16;;;;;;;8.43;2.85;;;17.50;99.90;;;;;;4973110;28;20325;-76
2023/03/30 11:33:07;;;;;;;6.28;2.28;;;17.40;99.90;;;;;;4969480;28;20297;-74
2023/03/30 11:35:54;;;;;;;8.23;2.92;;;17.40;99.90;;;;;;4964627;28;20226;-74
2023/03/30 11:38:28;;;;;;;5.68;2.95;;;17.50;99.90;;;;;;4981680;28;20232;-75
2023/03/30 11:41:03;;;;;;;7.55;2.40;;;17.70;99.90;;;;;;4978275;28;20216;-75
2023/03/30 11:43:29;;;;;;;7.78;2.88;;;17.80;99.90;;;;;;4981211;28;20174;-76
2023/03/30 11:46:10;;;;;;;21.05;3.83;;;17.90;99.90;;;;;;4979331;28;20628;-74
2023/03/30 11:48:48;;;;;;;7.65;2.65;;;17.70;99.90;;;;;;4976058;28;20207;-73
2023/03/30 11:51:41;;;;;;;5.13;2.65;;;17.70;99.90;;;;;;4975422;28;20681;-74
2023/03/30 11:54:10;;;;;;;9.98;2.70;;;17.90;99.90;;;;;;4974095;28;20624;-75
2023/03/30 11:56:53;;;;;;;9.95;2.97;;;18.00;99.90;;;;;;4978234;28;20202;-76
2023/03/30 11:59:32;;;;;;;8.02;3.20;;;18.00;99.90;;;;;;4975842;28;20214;-76
2023/03/30 12:02:30;;;;;;;6.32;3.50;;;18.00;99.90;;;;;;4969508;28;20214;-77
2023/03/30 12:05:06;;;;;;;7.60;3.03;;;18.00;99.90;;;;;;4970234;28;20589;-76
2023/03/30 12:07:41;;;;;;;11.23;3.13;;;18.20;99.90;;;;;;4973295;28;20651;-77
2023/03/30 12:10:39;;;;;;;9.15;2.63;;;18.20;99.90;;;;;;4974047;28;20528;-76
2023/03/30 12:13:09;;;;;;;5.03;2.65;;;18.30;99.90;;;;;;4977758;28;20322;-76
2023/03/30 12:15:41;;;;;;;9.85;3.10;;;18.30;99.90;;;;;;4982002;28;20596;-76
2023/03/30 12:18:27;;;;;;;6.88;2.80;;;18.40;99.90;;;;;;4979232;28;20198;-74
2023/03/30 12:21:15;;;;;;;7.88;3.00;;;18.40;99.90;;;;;;4976547;28;20240;-75
2023/03/30 12:23:59;;;;;;;7.47;2.85;;;18.50;99.90;;;;;;4980837;28;20209;-76
2023/03/30 12:26:31;;;;;;;8.63;2.70;;;18.60;99.90;;;;;;4991841;28;20233;-76
2023/03/30 12:29:07;;;;;;;4.85;2.17;;;18.60;99.90;;;;;;4978206;28;20668;-76
2023/03/30 12:31:54;;;;;;;4.95;2.83;;;18.60;99.90;;;;;;4976826;28;20220;-75
2023/03/30 12:34:24;;;;;;;5.28;3.10;;;18.70;99.90;;;;;;4989919;28;20272;-75
2023/03/30 12:37:17;;;;;;;4.28;2.45;;;18.70;99.90;;;;;;4976241;28;20290;-73
2023/03/30 12:39:49;;;;;;;5.88;2.40;;;18.60;99.90;;;;;;4974004;28;20618;-74
2023/03/30 12:42:33;;;;;;;5.22;2.97;;;18.40;99.90;;;;;;4974277;28;20612;-76
2023/03/30 12:45:11;;;;;;;8.95;2.95;;;18.40;99.90;;;;;;4969010;28;20549;-73
2023/03/30 12:47:55;;;;;;;6.38;2.25;;;18.40;99.90;;;;;;4972233;28;20759;-75
2023/03/30 12:50:36;;;;;;;8.40;2.53;;;18.60;99.90;;;;;;4969004;28;20337;-76
2023/03/30 12:53:21;;;;;;;7.47;2.83;;;18.80;99.90;;;;;;4972752;28;20588;-76
2023/03/30 12:55:53;;;;;;;4.35;2.30;;;18.90;99.90;;;;;;4982478;28;20328;-76
2023/03/30 12:58:39;;;;;;;3.88;2.10;;;19.00;99.90;;;;;;4972355;28;20232;-76
2023/03/30 13:01:16;;;;;;;5.10;2.90;;;18.90;99.90;;;;;;4974316;28;20339;-75
2023/03/30 13:03:58;;;;;;;9.45;2.90;;;18.80;99.90;;;;;;4977739;28;20641;-77
2023/03/30 13:06:32;;;;;;;4.15;2.58;;;18.70;99.90;;;;;;4972517;28;20241;-76
2023/03/30 13:09:06;;;;;;;9.00;2.67;;;18.80;99.90;;;;;;4971673;28;20202;-76
2023/03/30 13:12:05;;;;;;;9.00;4.15;;;18.80;99.90;;;;;;4977156;28;20247;-76
2023/03/30 13:14:34;;;;;;;5.15;2.42;;;18.90;99.90;;;;;;4988523;28;20203;-76